sensor_id;sensor_type;location;lat;lon;timestamp;pressure;altitude;pressure_sealevel;temperature;humidity
71306;BME280;59097;46.858;18.632;2023-03-19T00:01:02;100747.16;;;3.10;82.67
71306;BME280;59097;46.858;18.632;2023-03-19T00:03:31;100745.66;;;3.07;82.65
71306;BME280;59097;46.858;18.632;2023-03-19T00:05:59;100754.84;;;3.02;83.26
71306;BME280;59097;46.858;18.632;2023-03-19T00:08:27;100756.44;;;3.14;83.24
71306;BME280;59097;46.858;18.632;2023-03-19T00:10:56;100743.34;;;3.14;82.89
71306;BME280;59097;46.858;18.632;2023-03-19T00:13:23;100747.75;;;3.13;82.54
71306;BME280;59097;46.858;18.632;2023-03-19T00:15:52;100742.84;;;2.99;83.18
71306;BME280;59097;46.858;18.632;2023-03-19T00:18:20;100738.34;;;3.11;83.04
71306;BME280;59097;46.858;18.632;2023-03-19T00:20:48;100732.03;;;3.23;82.26
71306;BME280;59097;46.858;18.632;2023-03-19T00:23:16;100717.94;;;3.14;82.48
71306;BME280;59097;46.858;18.632;2023-03-19T00:25:44;100736.25;;;3.05;82.99
71306;BME280;59097;46.858;18.632;2023-03-19T00:28:12;100734.47;;;3.05;83.63
71306;BME280;59097;46.858;18.632;2023-03-19T00:30:40;100737.06;;;2.96;83.79
71306;BME280;59097;46.858;18.632;2023-03-19T00:33:09;100736.34;;;2.94;84.53
71306;BME280;59097;46.858;18.632;2023-03-19T00:35:38;100735.41;;;2.95;84.37
71306;BME280;59097;46.858;18.632;2023-03-19T00:38:06;100727.69;;;2.93;83.87
71306;BME280;59097;46.858;18.632;2023-03-19T00:40:35;100732.06;;;2.83;84.56
71306;BME280;59097;46.858;18.632;2023-03-19T00:43:04;100730.34;;;3.03;84.09
71306;BME280;59097;46.858;18.632;2023-03-19T00:45:32;100724.41;;;3.01;84.04
71306;BME280;59097;46.858;18.632;2023-03-19T00:48:02;100726.94;;;2.82;84.67
71306;BME280;59097;46.858;18.632;2023-03-19T00:50:30;100726.53;;;2.86;84.62
71306;BME280;59097;46.858;18.632;2023-03-19T00:52:59;100725.16;;;2.82;85.00
71306;BME280;59097;46.858;18.632;2023-03-19T00:55:28;100716.88;;;2.77;84.91
71306;BME280;59097;46.858;18.632;2023-03-19T00:57:56;100718.69;;;2.86;84.61
71306;BME280;59097;46.858;18.632;2023-03-19T01:00:24;100714.69;;;2.82;84.75
71306;BME280;59097;46.858;18.632;2023-03-19T01:02:52;100717.97;;;2.75;84.88
71306;BME280;59097;46.858;18.632;2023-03-19T01:05:21;100719.66;;;2.85;84.39
71306;BME280;59097;46.858;18.632;2023-03-19T01:07:49;100716.28;;;2.74;84.69
71306;BME280;59097;46.858;18.632;2023-03-19T01:10:19;100715.59;;;2.72;84.83
71306;BME280;59097;46.858;18.632;2023-03-19T01:12:49;100700.06;;;2.80;84.32
71306;BME280;59097;46.858;18.632;2023-03-19T01:15:18;100706.59;;;2.95;83.75
71306;BME280;59097;46.858;18.632;2023-03-19T01:17:46;100696.31;;;2.73;84.12
71306;BME280;59097;46.858;18.632;2023-03-19T01:20:14;100700.31;;;2.77;84.15
71306;BME280;59097;46.858;18.632;2023-03-19T01:22:45;100701.00;;;2.79;83.83
71306;BME280;59097;46.858;18.632;2023-03-19T01:25:13;100707.75;;;2.72;83.95
71306;BME280;59097;46.858;18.632;2023-03-19T01:27:42;100698.37;;;2.79;83.50
71306;BME280;59097;46.858;18.632;2023-03-19T01:30:11;100709.94;;;2.76;83.87
71306;BME280;59097;46.858;18.632;2023-03-19T01:32:48;100709.81;;;2.68;84.06
71306;BME280;59097;46.858;18.632;2023-03-19T01:35:17;100708.97;;;2.68;83.94
71306;BME280;59097;46.858;18.632;2023-03-19T01:37:45;100713.94;;;2.71;83.71
71306;BME280;59097;46.858;18.632;2023-03-19T01:40:14;100714.47;;;2.65;84.07
71306;BME280;59097;46.858;18.632;2023-03-19T01:45:46;100710.12;;;2.54;84.32
71306;BME280;59097;46.858;18.632;2023-03-19T01:48:37;100697.97;;;2.43;84.83
71306;BME280;59097;46.858;18.632;2023-03-19T01:51:08;100705.56;;;2.46;84.46
71306;BME280;59097;46.858;18.632;2023-03-19T01:53:38;100702.09;;;2.46;84.67
71306;BME280;59097;46.858;18.632;2023-03-19T01:56:15;100692.31;;;2.48;84.40
71306;BME280;59097;46.858;18.632;2023-03-19T01:58:47;100691.34;;;2.39;85.23
71306;BME280;59097;46.858;18.632;2023-03-19T02:01:18;100691.34;;;2.39;85.00
71306;BME280;59097;46.858;18.632;2023-03-19T02:03:49;100684.56;;;2.37;84.81
71306;BME280;59097;46.858;18.632;2023-03-19T02:06:19;100690.72;;;2.26;85.59
71306;BME280;59097;46.858;18.632;2023-03-19T02:08:49;100686.19;;;2.08;86.02
71306;BME280;59097;46.858;18.632;2023-03-19T02:11:19;100690.09;;;2.13;86.04
71306;BME280;59097;46.858;18.632;2023-03-19T02:13:47;100675.34;;;2.12;85.91
71306;BME280;59097;46.858;18.632;2023-03-19T02:16:16;100680.50;;;2.03;86.48
71306;BME280;59097;46.858;18.632;2023-03-19T02:18:46;100670.75;;;2.05;86.30
71306;BME280;59097;46.858;18.632;2023-03-19T02:21:17;100671.50;;;2.16;85.65
71306;BME280;59097;46.858;18.632;2023-03-19T02:26:23;100680.13;;;2.07;86.04
71306;BME280;59097;46.858;18.632;2023-03-19T02:28:58;100670.63;;;2.06;86.22
71306;BME280;59097;46.858;18.632;2023-03-19T02:31:26;100677.19;;;2.01;86.27
71306;BME280;59097;46.858;18.632;2023-03-19T02:36:43;100675.91;;;1.95;86.97
71306;BME280;59097;46.858;18.632;2023-03-19T02:39:22;100672.41;;;1.85;87.37
71306;BME280;59097;46.858;18.632;2023-03-19T02:41:53;100662.97;;;1.94;87.57
71306;BME280;59097;46.858;18.632;2023-03-19T02:44:24;100662.09;;;2.04;86.70
71306;BME280;59097;46.858;18.632;2023-03-19T02:46:53;100665.50;;;2.05;86.37
71306;BME280;59097;46.858;18.632;2023-03-19T02:49:21;100663.63;;;2.07;86.45
71306;BME280;59097;46.858;18.632;2023-03-19T02:51:50;100671.31;;;1.87;87.26
71306;BME280;59097;46.858;18.632;2023-03-19T02:54:19;100671.00;;;1.81;87.65
71306;BME280;59097;46.858;18.632;2023-03-19T02:56:47;100673.28;;;1.74;88.03
71306;BME280;59097;46.858;18.632;2023-03-19T02:59:15;100675.28;;;1.82;87.73
71306;BME280;59097;46.858;18.632;2023-03-19T03:01:44;100679.34;;;1.75;88.11
71306;BME280;59097;46.858;18.632;2023-03-19T03:04:12;100665.88;;;1.59;88.29
71306;BME280;59097;46.858;18.632;2023-03-19T03:06:44;100677.19;;;1.80;87.89
71306;BME280;59097;46.858;18.632;2023-03-19T03:09:12;100680.00;;;1.67;88.53
71306;BME280;59097;46.858;18.632;2023-03-19T03:11:41;100681.75;;;1.67;88.90
71306;BME280;59097;46.858;18.632;2023-03-19T03:14:09;100677.06;;;1.61;89.01
71306;BME280;59097;46.858;18.632;2023-03-19T03:16:40;100675.81;;;1.76;88.30
71306;BME280;59097;46.858;18.632;2023-03-19T03:19:08;100675.81;;;1.76;87.81
71306;BME280;59097;46.858;18.632;2023-03-19T03:21:36;100691.41;;;1.87;87.84
71306;BME280;59097;46.858;18.632;2023-03-19T03:24:05;100686.19;;;1.87;87.87
71306;BME280;59097;46.858;18.632;2023-03-19T03:26:33;100685.25;;;1.88;86.94
71306;BME280;59097;46.858;18.632;2023-03-19T03:29:02;100678.28;;;1.77;87.04
71306;BME280;59097;46.858;18.632;2023-03-19T03:31:32;100687.25;;;1.64;87.85
71306;BME280;59097;46.858;18.632;2023-03-19T03:34:01;100690.84;;;1.52;88.46
71306;BME280;59097;46.858;18.632;2023-03-19T03:36:30;100684.06;;;1.60;88.53
71306;BME280;59097;46.858;18.632;2023-03-19T03:38:59;100684.16;;;1.59;88.38
71306;BME280;59097;46.858;18.632;2023-03-19T03:41:27;100679.94;;;1.47;89.21
71306;BME280;59097;46.858;18.632;2023-03-19T03:43:55;100680.19;;;1.44;89.30
71306;BME280;59097;46.858;18.632;2023-03-19T03:46:24;100687.00;;;1.35;89.46
71306;BME280;59097;46.858;18.632;2023-03-19T03:48:52;100683.50;;;1.46;90.10
71306;BME280;59097;46.858;18.632;2023-03-19T03:51:20;100681.50;;;1.38;90.03
71306;BME280;59097;46.858;18.632;2023-03-19T03:53:49;100675.97;;;1.32;90.53
71306;BME280;59097;46.858;18.632;2023-03-19T03:56:17;100675.81;;;1.44;90.37
71306;BME280;59097;46.858;18.632;2023-03-19T03:58:45;100682.94;;;1.42;90.21
71306;BME280;59097;46.858;18.632;2023-03-19T04:01:15;100683.44;;;1.36;90.68
71306;BME280;59097;46.858;18.632;2023-03-19T04:03:44;100670.81;;;1.41;90.01
71306;BME280;59097;46.858;18.632;2023-03-19T04:06:15;100678.72;;;1.30;90.79
71306;BME280;59097;46.858;18.632;2023-03-19T04:08:44;100692.84;;;1.27;91.10
71306;BME280;59097;46.858;18.632;2023-03-19T04:11:13;100684.03;;;1.28;91.05
71306;BME280;59097;46.858;18.632;2023-03-19T04:13:41;100685.88;;;1.17;91.61
71306;BME280;59097;46.858;18.632;2023-03-19T04:16:10;100686.91;;;1.25;91.41
71306;BME280;59097;46.858;18.632;2023-03-19T04:18:38;100686.19;;;1.35;91.13
71306;BME280;59097;46.858;18.632;2023-03-19T04:21:06;100678.97;;;1.27;91.25
71306;BME280;59097;46.858;18.632;2023-03-19T04:23:38;100683.22;;;1.28;91.45
71306;BME280;59097;46.858;18.632;2023-03-19T04:26:06;100687.41;;;1.19;91.57
71306;BME280;59097;46.858;18.632;2023-03-19T04:28:34;100681.03;;;1.01;92.97
71306;BME280;59097;46.858;18.632;2023-03-19T04:31:05;100678.78;;;0.97;93.20
71306;BME280;59097;46.858;18.632;2023-03-19T04:33:35;100678.66;;;1.09;92.13
71306;BME280;59097;46.858;18.632;2023-03-19T04:36:04;100682.94;;;0.99;92.25
71306;BME280;59097;46.858;18.632;2023-03-19T04:38:33;100687.34;;;0.88;92.81
71306;BME280;59097;46.858;18.632;2023-03-19T04:41:01;100683.41;;;0.93;92.25
71306;BME280;59097;46.858;18.632;2023-03-19T04:43:33;100679.62;;;0.86;92.33
71306;BME280;59097;46.858;18.632;2023-03-19T04:46:01;100689.25;;;0.86;92.69
71306;BME280;59097;46.858;18.632;2023-03-19T04:48:30;100691.03;;;0.74;92.62
71306;BME280;59097;46.858;18.632;2023-03-19T04:50:58;100694.81;;;0.81;92.95
71306;BME280;59097;46.858;18.632;2023-03-19T04:53:26;100697.69;;;0.89;92.47
71306;BME280;59097;46.858;18.632;2023-03-19T04:55:55;100695.28;;;0.75;92.88
71306;BME280;59097;46.858;18.632;2023-03-19T04:58:23;100690.44;;;0.71;92.60
71306;BME280;59097;46.858;18.632;2023-03-19T05:00:51;100696.72;;;0.79;92.81
71306;BME280;59097;46.858;18.632;2023-03-19T05:03:21;100686.97;;;1.03;91.44
71306;BME280;59097;46.858;18.632;2023-03-19T05:05:49;100694.56;;;0.95;91.02
71306;BME280;59097;46.858;18.632;2023-03-19T05:08:20;100692.88;;;1.05;91.05
71306;BME280;59097;46.858;18.632;2023-03-19T05:10:48;100692.66;;;0.97;90.97
71306;BME280;59097;46.858;18.632;2023-03-19T05:13:16;100671.44;;;0.91;91.04
71306;BME280;59097;46.858;18.632;2023-03-19T05:15:52;100693.25;;;1.01;91.24
71306;BME280;59097;46.858;18.632;2023-03-19T05:18:21;100684.47;;;1.02;91.20
71306;BME280;59097;46.858;18.632;2023-03-19T05:20:50;100680.41;;;1.09;91.57
71306;BME280;59097;46.858;18.632;2023-03-19T05:23:19;100683.88;;;1.09;91.59
71306;BME280;59097;46.858;18.632;2023-03-19T05:25:48;100661.22;;;0.99;91.27
71306;BME280;59097;46.858;18.632;2023-03-19T05:28:18;100696.00;;;1.42;90.05
71306;BME280;59097;46.858;18.632;2023-03-19T05:30:46;100695.31;;;1.40;90.12
71306;BME280;59097;46.858;18.632;2023-03-19T05:33:15;100696.31;;;1.49;89.63
71306;BME280;59097;46.858;18.632;2023-03-19T05:35:44;100689.66;;;1.56;89.29
71306;BME280;59097;46.858;18.632;2023-03-19T05:38:13;100701.53;;;1.60;89.12
71306;BME280;59097;46.858;18.632;2023-03-19T05:40:42;100708.03;;;1.65;89.24
71306;BME280;59097;46.858;18.632;2023-03-19T05:43:11;100710.44;;;1.89;88.30
71306;BME280;59097;46.858;18.632;2023-03-19T05:45:39;100697.69;;;1.96;87.96
71306;BME280;59097;46.858;18.632;2023-03-19T05:48:08;100697.69;;;2.16;87.77
71306;BME280;59097;46.858;18.632;2023-03-19T05:50:38;100709.41;;;2.22;86.90
71306;BME280;59097;46.858;18.632;2023-03-19T05:53:07;100706.50;;;2.45;86.51
71306;BME280;59097;46.858;18.632;2023-03-19T05:55:36;100712.63;;;2.55;85.97
71306;BME280;59097;46.858;18.632;2023-03-19T05:58:05;100715.47;;;2.73;85.60
71306;BME280;59097;46.858;18.632;2023-03-19T06:00:34;100706.53;;;2.76;85.28
71306;BME280;59097;46.858;18.632;2023-03-19T06:03:04;100701.22;;;2.96;84.89
71306;BME280;59097;46.858;18.632;2023-03-19T06:05:33;100698.31;;;2.99;83.69
71306;BME280;59097;46.858;18.632;2023-03-19T06:08:02;100701.16;;;3.27;83.25
71306;BME280;59097;46.858;18.632;2023-03-19T06:10:35;100690.12;;;3.33;82.61
71306;BME280;59097;46.858;18.632;2023-03-19T06:13:04;100711.81;;;3.63;81.53
71306;BME280;59097;46.858;18.632;2023-03-19T06:15:33;100714.84;;;3.59;81.24
71306;BME280;59097;46.858;18.632;2023-03-19T06:18:03;100718.03;;;3.62;80.97
71306;BME280;59097;46.858;18.632;2023-03-19T06:20:31;100712.38;;;3.76;81.08
71306;BME280;59097;46.858;18.632;2023-03-19T06:23:00;100715.81;;;3.96;81.42
71306;BME280;59097;46.858;18.632;2023-03-19T06:25:28;100709.47;;;3.89;80.30
71306;BME280;59097;46.858;18.632;2023-03-19T06:27:56;100699.69;;;3.62;80.76
71306;BME280;59097;46.858;18.632;2023-03-19T06:30:25;100722.97;;;4.23;79.92
71306;BME280;59097;46.858;18.632;2023-03-19T06:32:53;100723.41;;;4.18;79.16
71306;BME280;59097;46.858;18.632;2023-03-19T06:35:21;100718.44;;;3.96;79.66
71306;BME280;59097;46.858;18.632;2023-03-19T06:37:50;100720.22;;;4.15;79.31
71306;BME280;59097;46.858;18.632;2023-03-19T06:40:19;100715.63;;;4.36;79.04
71306;BME280;59097;46.858;18.632;2023-03-19T06:42:47;100721.91;;;4.62;78.62
71306;BME280;59097;46.858;18.632;2023-03-19T06:45:16;100729.16;;;4.41;78.79
71306;BME280;59097;46.858;18.632;2023-03-19T06:47:46;100730.09;;;4.59;78.72
71306;BME280;59097;46.858;18.632;2023-03-19T06:50:15;100734.25;;;4.89;77.63
71306;BME280;59097;46.858;18.632;2023-03-19T06:52:43;100738.87;;;4.68;77.63
71306;BME280;59097;46.858;18.632;2023-03-19T06:55:12;100738.94;;;4.95;77.77
71306;BME280;59097;46.858;18.632;2023-03-19T06:57:40;100737.34;;;5.39;76.81
71306;BME280;59097;46.858;18.632;2023-03-19T07:00:09;100725.78;;;5.67;75.50
71306;BME280;59097;46.858;18.632;2023-03-19T07:02:38;100725.72;;;5.94;73.61
71306;BME280;59097;46.858;18.632;2023-03-19T07:05:07;100727.72;;;6.61;71.93
71306;BME280;59097;46.858;18.632;2023-03-19T07:07:35;100722.41;;;6.87;66.81
71306;BME280;59097;46.858;18.632;2023-03-19T07:10:04;100730.84;;;6.65;67.53
71306;BME280;59097;46.858;18.632;2023-03-19T07:12:33;100718.28;;;6.84;68.04
71306;BME280;59097;46.858;18.632;2023-03-19T07:15:02;100709.91;;;6.89;67.54
71306;BME280;59097;46.858;18.632;2023-03-19T07:17:31;100733.62;;;6.89;66.09
71306;BME280;59097;46.858;18.632;2023-03-19T07:19:59;100735.81;;;7.02;64.88
71306;BME280;59097;46.858;18.632;2023-03-19T07:22:27;100731.28;;;6.86;65.50
71306;BME280;59097;46.858;18.632;2023-03-19T07:24:56;100725.78;;;7.13;64.94
71306;BME280;59097;46.858;18.632;2023-03-19T07:27:24;100733.16;;;7.35;65.05
71306;BME280;59097;46.858;18.632;2023-03-19T07:29:52;100737.84;;;7.08;63.64
71306;BME280;59097;46.858;18.632;2023-03-19T07:32:22;100737.41;;;7.36;63.14
71306;BME280;59097;46.858;18.632;2023-03-19T07:34:50;100746.53;;;7.08;63.98
71306;BME280;59097;46.858;18.632;2023-03-19T07:37:18;100742.34;;;7.31;63.95
71306;BME280;59097;46.858;18.632;2023-03-19T07:39:49;100729.63;;;7.77;62.25
71306;BME280;59097;46.858;18.632;2023-03-19T07:42:17;100739.84;;;7.88;62.39
71306;BME280;59097;46.858;18.632;2023-03-19T07:44:45;100733.22;;;7.68;62.29
71306;BME280;59097;46.858;18.632;2023-03-19T07:47:13;100740.16;;;7.93;62.65
71306;BME280;59097;46.858;18.632;2023-03-19T07:49:56;100723.84;;;7.81;62.39
71306;BME280;59097;46.858;18.632;2023-03-19T07:52:24;100733.25;;;8.16;61.37
71306;BME280;59097;46.858;18.632;2023-03-19T07:54:53;100739.72;;;8.30;61.90
71306;BME280;59097;46.858;18.632;2023-03-19T07:57:21;100733.06;;;7.77;60.25
71306;BME280;59097;46.858;18.632;2023-03-19T07:59:49;100739.88;;;8.20;60.43
71306;BME280;59097;46.858;18.632;2023-03-19T08:02:17;100732.91;;;8.19;59.76
71306;BME280;59097;46.858;18.632;2023-03-19T08:04:49;100739.22;;;8.42;59.59
71306;BME280;59097;46.858;18.632;2023-03-19T08:07:17;100727.50;;;8.12;60.02
71306;BME280;59097;46.858;18.632;2023-03-19T08:09:46;100734.91;;;8.49;59.36
71306;BME280;59097;46.858;18.632;2023-03-19T08:12:15;100726.44;;;8.62;59.49
71306;BME280;59097;46.858;18.632;2023-03-19T08:14:43;100731.41;;;8.57;59.86
71306;BME280;59097;46.858;18.632;2023-03-19T08:17:11;100734.56;;;8.52;59.00
71306;BME280;59097;46.858;18.632;2023-03-19T08:19:39;100732.37;;;8.72;58.87
71306;BME280;59097;46.858;18.632;2023-03-19T08:22:08;100734.44;;;9.01;58.50
71306;BME280;59097;46.858;18.632;2023-03-19T08:24:36;100732.50;;;9.25;57.23
71306;BME280;59097;46.858;18.632;2023-03-19T08:27:04;100732.13;;;8.98;56.01
71306;BME280;59097;46.858;18.632;2023-03-19T08:29:33;100733.78;;;9.07;56.47
71306;BME280;59097;46.858;18.632;2023-03-19T08:32:01;100723.31;;;9.13;56.43
71306;BME280;59097;46.858;18.632;2023-03-19T08:34:30;100736.28;;;9.62;56.30
71306;BME280;59097;46.858;18.632;2023-03-19T08:36:59;100725.03;;;11.95;50.45
71306;BME280;59097;46.858;18.632;2023-03-19T08:39:27;100716.16;;;13.40;45.93
71306;BME280;59097;46.858;18.632;2023-03-19T08:41:55;100713.00;;;16.33;40.29
71306;BME280;59097;46.858;18.632;2023-03-19T08:44:24;100718.87;;;15.61;39.39
71306;BME280;59097;46.858;18.632;2023-03-19T08:46:52;100719.66;;;17.10;37.67
71306;BME280;59097;46.858;18.632;2023-03-19T08:49:20;100722.09;;;16.57;37.45
71306;BME280;59097;46.858;18.632;2023-03-19T08:51:48;100715.84;;;17.35;36.72
71306;BME280;59097;46.858;18.632;2023-03-19T08:54:17;100729.94;;;15.64;38.78
71306;BME280;59097;46.858;18.632;2023-03-19T08:56:49;100724.63;;;16.70;39.34
71306;BME280;59097;46.858;18.632;2023-03-19T08:59:18;100730.16;;;15.63;39.88
71306;BME280;59097;46.858;18.632;2023-03-19T09:01:51;100731.87;;;16.87;37.74
71306;BME280;59097;46.858;18.632;2023-03-19T09:04:20;100737.25;;;15.38;39.97
71306;BME280;59097;46.858;18.632;2023-03-19T09:06:49;100732.00;;;16.74;38.61
71306;BME280;59097;46.858;18.632;2023-03-19T09:09:22;100720.19;;;16.82;36.94
71306;BME280;59097;46.858;18.632;2023-03-19T09:11:50;100716.25;;;16.10;37.86
71306;BME280;59097;46.858;18.632;2023-03-19T09:14:18;100725.88;;;15.93;39.70
71306;BME280;59097;46.858;18.632;2023-03-19T09:16:47;100721.81;;;16.65;38.32
71306;BME280;59097;46.858;18.632;2023-03-19T09:19:15;100724.03;;;15.56;39.11
71306;BME280;59097;46.858;18.632;2023-03-19T09:21:44;100724.13;;;15.23;40.18
71306;BME280;59097;46.858;18.632;2023-03-19T09:24:13;100716.16;;;17.27;37.10
71306;BME280;59097;46.858;18.632;2023-03-19T09:26:41;100718.34;;;14.82;40.50
71306;BME280;59097;46.858;18.632;2023-03-19T09:29:09;100714.78;;;13.63;41.44
71306;BME280;59097;46.858;18.632;2023-03-19T09:31:38;100723.44;;;14.90;40.76
71306;BME280;59097;46.858;18.632;2023-03-19T09:34:06;100712.91;;;16.21;38.70
71306;BME280;59097;46.858;18.632;2023-03-19T09:36:35;100712.50;;;16.18;39.42
71306;BME280;59097;46.858;18.632;2023-03-19T09:39:05;100716.44;;;15.84;39.43
71306;BME280;59097;46.858;18.632;2023-03-19T09:41:44;100723.09;;;14.60;40.80
71306;BME280;59097;46.858;18.632;2023-03-19T09:44:28;100716.09;;;14.59;42.12
71306;BME280;59097;46.858;18.632;2023-03-19T09:47:31;100726.56;;;14.67;41.94
71306;BME280;59097;46.858;18.632;2023-03-19T09:50:04;100717.41;;;13.44;44.18
71306;BME280;59097;46.858;18.632;2023-03-19T09:57:53;100707.44;;;12.22;48.60
71306;BME280;59097;46.858;18.632;2023-03-19T10:00:29;100711.50;;;12.39;46.99
71306;BME280;59097;46.858;18.632;2023-03-19T10:16:28;100692.91;;;13.14;46.36
71306;BME280;59097;46.858;18.632;2023-03-19T10:18:59;100695.88;;;13.52;45.61
71306;BME280;59097;46.858;18.632;2023-03-19T10:26:47;100677.25;;;12.98;45.16
71306;BME280;59097;46.858;18.632;2023-03-19T10:29:20;100682.34;;;12.93;45.48
71306;BME280;59097;46.858;18.632;2023-03-19T10:32:02;100662.69;;;12.94;44.72
71306;BME280;59097;46.858;18.632;2023-03-19T10:34:40;100677.66;;;13.55;45.60
71306;BME280;59097;46.858;18.632;2023-03-19T10:39:42;100662.88;;;12.92;44.39
71306;BME280;59097;46.858;18.632;2023-03-19T10:45:23;100654.84;;;13.20;44.76
71306;BME280;59097;46.858;18.632;2023-03-19T10:47:55;100658.38;;;13.40;44.01
71306;BME280;59097;46.858;18.632;2023-03-19T10:50:28;100657.78;;;13.51;43.93
71306;BME280;59097;46.858;18.632;2023-03-19T10:59:31;100650.97;;;13.36;43.83
71306;BME280;59097;46.858;18.632;2023-03-19T11:02:29;100639.94;;;13.45;44.41
71306;BME280;59097;46.858;18.632;2023-03-19T11:05:21;100602.59;;;13.32;43.53
71306;BME280;59097;46.858;18.632;2023-03-19T11:07:54;100630.97;;;13.92;44.62
71306;BME280;59097;46.858;18.632;2023-03-19T11:10:26;100627.69;;;13.97;44.08
71306;BME280;59097;46.858;18.632;2023-03-19T11:13:11;100628.06;;;14.00;43.50
71306;BME280;59097;46.858;18.632;2023-03-19T11:15:46;100627.88;;;13.95;42.56
71306;BME280;59097;46.858;18.632;2023-03-19T11:18:29;100622.53;;;14.28;42.25
71306;BME280;59097;46.858;18.632;2023-03-19T11:21:26;100621.53;;;14.03;41.30
71306;BME280;59097;46.858;18.632;2023-03-19T11:24:02;100617.59;;;14.18;41.85
71306;BME280;59097;46.858;18.632;2023-03-19T11:26:30;100622.34;;;13.97;42.15
71306;BME280;59097;46.858;18.632;2023-03-19T11:29:03;100612.09;;;14.07;41.66
71306;BME280;59097;46.858;18.632;2023-03-19T11:31:59;100616.34;;;14.21;42.45
71306;BME280;59097;46.858;18.632;2023-03-19T11:35:08;100611.88;;;14.34;41.78
71306;BME280;59097;46.858;18.632;2023-03-19T11:37:55;100599.34;;;14.09;42.05
71306;BME280;59097;46.858;18.632;2023-03-19T11:40:44;100601.19;;;14.15;42.29
71306;BME280;59097;46.858;18.632;2023-03-19T11:43:36;100590.31;;;14.16;42.23
71306;BME280;59097;46.858;18.632;2023-03-19T11:51:20;100580.22;;;14.51;42.29
71306;BME280;59097;46.858;18.632;2023-03-19T11:57:00;100577.47;;;14.64;42.15
71306;BME280;59097;46.858;18.632;2023-03-19T11:59:37;100571.91;;;14.72;42.49
71306;BME280;59097;46.858;18.632;2023-03-19T12:08:32;100563.75;;;14.54;42.05
71306;BME280;59097;46.858;18.632;2023-03-19T12:11:22;100549.25;;;14.30;41.79
71306;BME280;59097;46.858;18.632;2023-03-19T12:25:40;100517.31;;;14.68;41.82
71306;BME280;59097;46.858;18.632;2023-03-19T12:28:28;100505.50;;;14.82;41.63
71306;BME280;59097;46.858;18.632;2023-03-19T12:37:19;100495.91;;;14.75;41.03
71306;BME280;59097;46.858;18.632;2023-03-19T12:42:37;100464.16;;;14.60;41.76
71306;BME280;59097;46.858;18.632;2023-03-19T12:45:28;100495.53;;;14.71;42.21
71306;BME280;59097;46.858;18.632;2023-03-19T12:48:04;100499.28;;;14.57;42.73
71306;BME280;59097;46.858;18.632;2023-03-19T12:50:36;100500.34;;;14.56;42.44
71306;BME280;59097;46.858;18.632;2023-03-19T12:53:25;100474.53;;;14.75;42.88
71306;BME280;59097;46.858;18.632;2023-03-19T12:55:59;100486.56;;;14.97;42.25
71306;BME280;59097;46.858;18.632;2023-03-19T12:59:03;100481.31;;;15.33;41.75
71306;BME280;59097;46.858;18.632;2023-03-19T13:01:42;100479.78;;;15.50;40.34
71306;BME280;59097;46.858;18.632;2023-03-19T13:04:15;100483.16;;;15.82;40.93
71306;BME280;59097;46.858;18.632;2023-03-19T13:06:51;100472.41;;;15.70;40.36
71306;BME280;59097;46.858;18.632;2023-03-19T13:12:15;100472.25;;;15.65;40.83
71306;BME280;59097;46.858;18.632;2023-03-19T13:23:20;100449.06;;;15.35;41.07
71306;BME280;59097;46.858;18.632;2023-03-19T13:25:53;100444.84;;;15.21;41.11
71306;BME280;59097;46.858;18.632;2023-03-19T13:28:35;100448.66;;;15.31;41.30
71306;BME280;59097;46.858;18.632;2023-03-19T13:31:06;100440.87;;;15.30;41.07
71306;BME280;59097;46.858;18.632;2023-03-19T13:33:36;100437.44;;;15.23;40.87
71306;BME280;59097;46.858;18.632;2023-03-19T13:36:11;100429.97;;;15.31;41.77
71306;BME280;59097;46.858;18.632;2023-03-19T13:38:51;100437.09;;;15.37;40.64
71306;BME280;59097;46.858;18.632;2023-03-19T13:55:45;100420.91;;;15.32;41.38
71306;BME280;59097;46.858;18.632;2023-03-19T13:58:20;100423.78;;;15.31;40.92
71306;BME280;59097;46.858;18.632;2023-03-19T14:03:59;100406.84;;;15.19;41.60
71306;BME280;59097;46.858;18.632;2023-03-19T14:06:46;100406.09;;;15.11;41.81
71306;BME280;59097;46.858;18.632;2023-03-19T14:22:53;100419.34;;;15.49;41.33
71306;BME280;59097;46.858;18.632;2023-03-19T14:25:25;100406.94;;;15.55;41.42
71306;BME280;59097;46.858;18.632;2023-03-19T14:27:56;100410.13;;;15.45;40.56
71306;BME280;59097;46.858;18.632;2023-03-19T14:30:45;100398.66;;;15.63;41.19
71306;BME280;59097;46.858;18.632;2023-03-19T14:33:49;100403.53;;;15.84;40.19
71306;BME280;59097;46.858;18.632;2023-03-19T14:36:19;100402.50;;;15.85;41.01
71306;BME280;59097;46.858;18.632;2023-03-19T14:38:54;100402.94;;;15.82;39.65
71306;BME280;59097;46.858;18.632;2023-03-19T14:41:26;100397.38;;;15.65;39.71
71306;BME280;59097;46.858;18.632;2023-03-19T14:47:10;100395.72;;;15.46;40.67
71306;BME280;59097;46.858;18.632;2023-03-19T14:50:09;100393.69;;;15.42;40.87
71306;BME280;59097;46.858;18.632;2023-03-19T14:52:48;100404.22;;;15.37;41.32
71306;BME280;59097;46.858;18.632;2023-03-19T14:55:18;100401.22;;;15.51;40.38
71306;BME280;59097;46.858;18.632;2023-03-19T14:57:47;100395.06;;;15.51;40.65
71306;BME280;59097;46.858;18.632;2023-03-19T15:00:16;100384.81;;;15.48;41.22
71306;BME280;59097;46.858;18.632;2023-03-19T15:02:49;100385.13;;;15.58;40.19
71306;BME280;59097;46.858;18.632;2023-03-19T15:05:55;100383.47;;;15.57;40.57
71306;BME280;59097;46.858;18.632;2023-03-19T15:08:21;100386.75;;;15.59;41.05
71306;BME280;59097;46.858;18.632;2023-03-19T15:16:42;100388.81;;;15.57;41.70
71306;BME280;59097;46.858;18.632;2023-03-19T15:19:17;100392.25;;;15.64;41.74